Time;durP1;ratioP1;P1;durP2;ratioP2;P2;SDS_P1;SDS_P2;PMS_P1;PMS_P2;Temp;Humidity;BMP_temperature;BMP_pressure;BME280_temperature;BME280_humidity;BME280_pressure;Samples;Min_cycle;Max_cycle;Signal;HPM_P1;HPM_P2
2022/05/08 00:01:03;;;;;;;0.70;0.70;;;12.10;68.60;;;;;;5007563;28;20670;-76
2022/05/08 00:03:29;;;;;;;0.88;0.70;;;12.00;69.20;;;;;;5008801;28;20190;-76
2022/05/08 00:05:55;;;;;;;1.17;1.08;;;12.00;69.10;;;;;;5039147;28;20193;-76
2022/05/08 00:08:21;;;;;;;1.05;0.75;;;11.90;69.00;;;;;;5013899;28;20199;-76
2022/05/08 00:10:47;;;;;;;0.82;0.82;;;11.90;69.10;;;;;;5014218;28;20176;-76
2022/05/08 00:13:14;;;;;;;0.77;0.77;;;11.90;69.40;;;;;;5018810;28;20264;-76
2022/05/08 00:15:40;;;;;;;3.83;1.35;;;11.80;69.40;;;;;;5045174;28;20177;-74
2022/05/08 00:18:07;;;;;;;0.95;0.75;;;11.80;69.40;;;;;;5017537;28;20217;-75
2022/05/08 00:20:33;;;;;;;2.45;1.02;;;11.70;69.70;;;;;;5043945;28;20200;-74
2022/05/08 00:22:59;;;;;;;3.33;0.80;;;11.70;69.90;;;;;;5013716;28;20180;-75
2022/05/08 00:25:26;;;;;;;1.20;1.10;;;11.60;69.90;;;;;;5011361;28;20259;-75
2022/05/08 00:27:52;;;;;;;2.88;1.30;;;11.50;69.80;;;;;;5010489;28;20250;-75
2022/05/08 00:30:17;;;;;;;1.35;1.00;;;11.40;70.30;;;;;;5009518;28;20192;-75
2022/05/08 00:32:43;;;;;;;1.00;1.00;;;11.40;70.20;;;;;;5014879;28;20181;-75
2022/05/08 00:35:10;;;;;;;4.28;1.02;;;11.40;70.60;;;;;;5012903;28;20187;-77
2022/05/08 00:37:39;;;;;;;1.87;0.90;;;11.30;70.70;;;;;;5013461;28;20219;-75
2022/05/08 00:40:06;;;;;;;0.90;0.90;;;11.20;70.70;;;;;;5011841;28;20185;-77
2022/05/08 00:42:31;;;;;;;0.90;0.90;;;11.20;71.00;;;;;;5017127;28;20203;-77
2022/05/08 00:44:57;;;;;;;0.80;0.80;;;11.10;71.00;;;;;;5016694;28;20654;-75
2022/05/08 00:47:23;;;;;;;1.23;0.80;;;;;;;;;;5011680;28;20180;-74
2022/05/08 00:49:49;;;;;;;1.13;1.00;;;11.00;71.10;;;;;;5014946;28;20191;-77
2022/05/08 00:52:18;;;;;;;0.93;0.60;;;10.90;71.30;;;;;;5018292;28;20176;-77
2022/05/08 00:54:45;;;;;;;1.53;1.20;;;10.90;71.40;;;;;;5014900;28;20185;-76
2022/05/08 00:57:11;;;;;;;1.70;0.90;;;10.80;71.40;;;;;;5022381;28;20293;-75
2022/05/08 00:59:36;;;;;;;0.80;0.80;;;10.80;71.20;;;;;;5020903;28;20730;-75
2022/05/08 01:02:03;;;;;;;0.50;0.50;;;10.80;72.20;;;;;;5018150;28;20180;-75
2022/05/08 01:04:30;;;;;;;3.33;0.70;;;10.70;71.70;;;;;;5018576;28;20196;-75
2022/05/08 01:06:56;;;;;;;0.82;0.82;;;10.70;71.50;;;;;;5011501;28;20184;-76
2022/05/08 01:09:23;;;;;;;8.17;1.00;;;10.60;71.70;;;;;;5018968;28;20196;-76
2022/05/08 01:11:49;;;;;;;1.23;0.90;;;10.60;71.80;;;;;;5052447;28;20624;-76
2022/05/08 01:14:14;;;;;;;0.50;0.50;;;10.60;72.00;;;;;;5017084;28;20180;-76
2022/05/08 01:16:40;;;;;;;0.83;0.73;;;10.60;71.60;;;;;;5014272;28;20185;-76
2022/05/08 01:19:06;;;;;;;0.55;0.50;;;10.60;71.70;;;;;;5019593;28;20240;-76
2022/05/08 01:21:41;;;;;;;0.67;0.67;;;10.60;72.20;;;;;;5016994;28;20181;-76
2022/05/08 01:24:08;;;;;;;1.23;0.70;;;10.60;71.80;;;;;;5013945;28;20184;-76
2022/05/08 01:26:33;;;;;;;0.80;0.80;;;10.50;72.00;;;;;;5015639;28;20185;-76
2022/05/08 01:29:00;;;;;;;0.70;0.70;;;10.50;71.70;;;;;;5013162;28;20185;-76
2022/05/08 01:31:26;;;;;;;2.73;0.70;;;10.50;71.60;;;;;;5014034;28;20607;-75
2022/05/08 01:33:52;;;;;;;0.40;0.40;;;;;;;;;;5013934;28;20180;-77
2022/05/08 01:36:18;;;;;;;0.40;0.40;;;10.50;71.70;;;;;;5015222;28;20219;-76
2022/05/08 01:38:44;;;;;;;0.57;0.57;;;10.40;71.90;;;;;;5013144;28;20703;-75
2022/05/08 01:41:10;;;;;;;1.23;0.60;;;;;;;;;;5017168;28;20192;-76
2022/05/08 01:43:36;;;;;;;0.40;0.40;;;10.40;72.10;;;;;;5015041;28;20185;-75
2022/05/08 01:46:06;;;;;;;0.90;0.80;;;10.40;72.40;;;;;;5011070;28;20271;-76
2022/05/08 01:48:32;;;;;;;1.03;0.73;;;10.40;72.20;;;;;;5015449;28;20191;-76
2022/05/08 01:51:00;;;;;;;0.90;0.90;;;10.40;72.50;;;;;;5042231;28;20191;-76
2022/05/08 01:53:29;;;;;;;1.13;0.70;;;10.30;72.30;;;;;;5022159;28;20243;-77
2022/05/08 01:55:56;;;;;;;1.07;1.00;;;10.30;72.40;;;;;;5014677;28;20189;-76
2022/05/08 01:58:25;;;;;;;0.73;0.73;;;10.20;72.60;;;;;;5010412;28;20610;-76
2022/05/08 02:00:52;;;;;;;2.67;0.70;;;10.20;72.80;;;;;;5015995;28;20749;-76
2022/05/08 02:03:19;;;;;;;2.10;0.60;;;10.10;72.60;;;;;;5013997;28;20584;-76
2022/05/08 02:05:45;;;;;;;1.70;1.07;;;10.10;72.60;;;;;;5008763;28;20246;-75
2022/05/08 02:08:11;;;;;;;0.50;0.50;;;10.10;72.70;;;;;;5015469;28;20716;-76
2022/05/08 02:10:38;;;;;;;1.23;1.10;;;10.00;72.70;;;;;;5015436;28;20230;-76
2022/05/08 02:13:04;;;;;;;0.47;0.47;;;;;;;;;;5011735;28;20240;-76
2022/05/08 02:15:30;;;;;;;0.67;0.67;;;9.90;72.60;;;;;;5018302;28;20188;-77
2022/05/08 02:18:00;;;;;;;0.70;0.70;;;9.90;72.70;;;;;;5017861;28;20212;-76
2022/05/08 02:20:26;;;;;;;1.17;1.07;;;9.90;72.70;;;;;;5016273;28;20753;-75
2022/05/08 02:22:52;;;;;;;1.13;0.73;;;;;;;;;;5017384;28;20185;-76
2022/05/08 02:25:18;;;;;;;0.60;0.60;;;9.80;72.70;;;;;;5015787;28;20637;-76
2022/05/08 02:27:49;;;;;;;1.43;0.90;;;9.70;72.40;;;;;;5012777;28;20189;-76
2022/05/08 02:30:17;;;;;;;1.53;0.67;;;9.70;72.40;;;;;;5014332;28;20173;-76
2022/05/08 02:32:43;;;;;;;0.90;0.90;;;9.60;72.80;;;;;;5014718;28;20967;-76
2022/05/08 02:35:10;;;;;;;1.70;0.80;;;9.60;73.10;;;;;;5016643;28;20223;-76
2022/05/08 02:37:37;;;;;;;1.13;1.00;;;9.50;73.40;;;;;;5011986;28;20256;-76
2022/05/08 02:40:06;;;;;;;1.80;0.60;;;9.40;73.30;;;;;;5018492;28;20195;-76
2022/05/08 02:42:32;;;;;;;0.90;0.90;;;9.40;73.40;;;;;;5017893;28;20196;-76
2022/05/08 02:44:58;;;;;;;1.33;0.90;;;;;;;;;;5013727;28;20185;-76
2022/05/08 02:47:24;;;;;;;1.90;0.77;;;;;;;;;;5012219;28;20254;-76
2022/05/08 02:49:50;;;;;;;0.90;0.90;;;;;;;;;;5014351;28;20192;-76
2022/05/08 02:52:16;;;;;;;0.73;0.73;;;;;;;;;;5016566;28;20184;-76
2022/05/08 02:54:42;;;;;;;0.50;0.50;;;;;;;;;;5012267;28;20981;-76
2022/05/08 02:59:52;;;;;;;1.00;0.67;;;;;;;;;;5012343;28;20610;-76
2022/05/08 03:02:18;;;;;;;2.30;1.00;;;;;;;;;;5013443;28;20687;-76
2022/05/08 03:04:45;;;;;;;0.80;0.80;;;;;;;;;;5017114;28;20184;-76
2022/05/08 03:07:12;;;;;;;5.60;1.17;;;9.00;72.20;;;;;;5014368;28;20192;-76
2022/05/08 03:09:38;;;;;;;0.77;0.77;;;9.00;72.50;;;;;;5009851;28;20189;-76
2022/05/08 03:12:06;;;;;;;1.10;1.00;;;9.00;72.90;;;;;;5011658;28;20690;-76
2022/05/08 03:14:32;;;;;;;0.90;0.83;;;;;;;;;;5042003;28;20699;-76
2022/05/08 03:16:58;;;;;;;0.60;0.60;;;;;;;;;;5010351;28;20197;-78
2022/05/08 03:19:25;;;;;;;0.70;0.70;;;;;;;;;;5011468;28;20219;-77
2022/05/08 03:21:51;;;;;;;0.50;0.50;;;9.00;72.80;;;;;;5015829;28;20730;-77
2022/05/08 03:24:18;;;;;;;1.77;0.90;;;9.00;73.00;;;;;;5010793;28;20177;-77
2022/05/08 03:26:44;;;;;;;0.57;0.57;;;;;;;;;;5009736;28;20189;-77
2022/05/08 03:29:10;;;;;;;1.10;0.73;;;;;;;;;;5013997;28;20184;-77
2022/05/08 03:31:37;;;;;;;0.47;0.47;;;;;;;;;;5018344;28;20277;-77
2022/05/08 03:34:03;;;;;;;1.53;0.90;;;;;;;;;;5009164;28;20251;-77
2022/05/08 03:36:29;;;;;;;0.63;0.63;;;;;;;;;;5013305;28;20624;-76
2022/05/08 03:38:56;;;;;;;6.20;0.80;;;;;;;;;;5014767;28;20216;-76
2022/05/08 03:41:22;;;;;;;0.90;0.90;;;;;;;;;;5013919;28;20203;-77
2022/05/08 03:43:48;;;;;;;0.80;0.80;;;9.00;73.00;;;;;;5012110;28;20279;-76
2022/05/08 03:46:14;;;;;;;0.80;0.80;;;9.00;72.60;;;;;;5017813;28;20365;-76
2022/05/08 03:48:41;;;;;;;0.60;0.60;;;;;;;;;;5040816;28;20667;-76
2022/05/08 03:51:08;;;;;;;0.93;0.67;;;;;;;;;;5012621;28;20180;-77
2022/05/08 03:53:34;;;;;;;1.03;0.63;;;9.00;72.50;;;;;;5017314;28;20184;-77
2022/05/08 03:56:00;;;;;;;1.00;0.80;;;9.00;72.70;;;;;;5013235;28;20185;-77
2022/05/08 03:58:26;;;;;;;0.70;0.70;;;9.00;72.70;;;;;;5013514;28;20243;-77
2022/05/08 04:00:52;;;;;;;0.80;0.63;;;9.10;72.70;;;;;;5010873;28;20192;-76
2022/05/08 04:03:18;;;;;;;5.53;1.13;;;;;;;;;;5013859;28;20639;-76
2022/05/08 04:05:44;;;;;;;0.60;0.60;;;;;;;;;;5010810;28;20573;-77
2022/05/08 04:08:10;;;;;;;0.60;0.60;;;;;;;;;;5015601;28;20690;-77
2022/05/08 04:10:36;;;;;;;0.97;0.97;;;9.20;72.50;;;;;;5014520;28;20180;-75
2022/05/08 04:13:03;;;;;;;2.27;0.80;;;9.20;72.50;;;;;;5021342;28;20298;-75
2022/05/08 04:18:14;;;;;;;0.70;0.70;;;;;;;;;;5008869;28;20239;-76
2022/05/08 04:20:40;;;;;;;0.97;0.80;;;9.40;73.00;;;;;;5014890;28;21090;-75
2022/05/08 04:25:52;;;;;;;4.03;0.60;;;9.40;72.80;;;;;;5011501;28;20187;-76
2022/05/08 04:28:19;;;;;;;0.77;0.77;;;;;;;;;;5015669;28;20928;-76
2022/05/08 04:30:45;;;;;;;2.30;0.90;;;9.50;72.60;;;;;;5016578;28;20628;-76
2022/05/08 04:33:11;;;;;;;2.23;0.70;;;;;;;;;;5009915;28;20250;-76
2022/05/08 04:35:38;;;;;;;2.37;0.90;;;;;;;;;;5011185;28;20196;-76
2022/05/08 04:38:03;;;;;;;0.43;0.43;;;9.60;72.70;;;;;;5007118;28;20322;-76
2022/05/08 04:40:29;;;;;;;1.43;0.80;;;9.70;72.60;;;;;;5008696;28;20269;-76
2022/05/08 04:42:55;;;;;;;0.87;0.80;;;9.70;72.40;;;;;;5017130;28;20180;-76
2022/05/08 04:45:20;;;;;;;1.03;0.80;;;9.70;72.50;;;;;;5009094;28;20177;-75
2022/05/08 04:47:46;;;;;;;0.97;0.60;;;9.80;72.60;;;;;;5008357;28;20193;-76
2022/05/08 04:50:12;;;;;;;0.80;0.80;;;9.80;72.80;;;;;;5014862;28;20199;-76
2022/05/08 04:52:37;;;;;;;0.80;0.80;;;9.80;73.60;;;;;;5014256;28;20177;-76
2022/05/08 04:55:04;;;;;;;3.53;0.87;;;9.90;73.30;;;;;;5017536;28;20192;-75
2022/05/08 04:57:30;;;;;;;0.53;0.53;;;9.90;73.30;;;;;;5010509;28;20665;-75
2022/05/08 04:59:57;;;;;;;1.13;0.70;;;10.00;72.80;;;;;;5010143;28;20207;-75
2022/05/08 05:02:23;;;;;;;3.90;0.70;;;10.00;72.80;;;;;;5011961;28;20192;-76
2022/05/08 05:04:49;;;;;;;0.97;0.53;;;;;;;;;;5007707;28;20173;-75
2022/05/08 05:07:15;;;;;;;0.70;0.70;;;;;;;;;;5015184;28;20177;-75
2022/05/08 05:09:41;;;;;;;1.20;0.90;;;;;;;;;;5011906;28;20264;-75
2022/05/08 05:12:07;;;;;;;1.07;0.77;;;10.10;71.20;;;;;;5013556;28;20239;-76
2022/05/08 05:14:33;;;;;;;1.40;0.50;;;10.20;71.20;;;;;;5010529;28;20190;-75
2022/05/08 05:17:00;;;;;;;0.50;0.50;;;10.20;71.00;;;;;;5014903;28;20199;-75
2022/05/08 05:19:26;;;;;;;0.40;0.40;;;10.30;70.60;;;;;;5044731;28;20851;-75
2022/05/08 05:21:52;;;;;;;0.50;0.50;;;10.30;70.50;;;;;;5013527;28;20255;-76
2022/05/08 05:24:18;;;;;;;2.03;0.60;;;10.30;70.40;;;;;;5017075;28;20322;-75
2022/05/08 05:26:44;;;;;;;0.83;0.60;;;;;;;;;;5016778;28;21772;-75
2022/05/08 05:29:10;;;;;;;2.67;0.87;;;;;;;;;;5012299;28;20193;-76
2022/05/08 05:31:36;;;;;;;0.60;0.60;;;10.50;70.00;;;;;;5017740;28;20192;-75
2022/05/08 05:34:02;;;;;;;1.03;0.60;;;10.50;69.80;;;;;;5014077;28;20176;-76
2022/05/08 05:36:28;;;;;;;0.60;0.53;;;;;;;;;;5015653;28;20180;-75
2022/05/08 05:38:54;;;;;;;0.80;0.80;;;10.60;69.90;;;;;;5019819;28;20261;-75
2022/05/08 05:41:20;;;;;;;0.83;0.83;;;;;;;;;;5011302;28;20255;-75
2022/05/08 05:43:46;;;;;;;0.70;0.70;;;10.70;69.70;;;;;;5017725;28;20310;-75
2022/05/08 05:48:56;;;;;;;3.57;0.80;;;;;;;;;;5016190;28;20207;-75
2022/05/08 05:51:22;;;;;;;0.50;0.50;;;10.80;69.90;;;;;;5017728;28;20185;-75
2022/05/08 05:53:48;;;;;;;0.70;0.70;;;;;;;;;;5015840;28;20172;-75
2022/05/08 05:56:13;;;;;;;2.40;1.00;;;10.90;69.60;;;;;;5018287;28;20199;-77
2022/05/08 05:58:39;;;;;;;0.60;0.60;;;10.90;69.50;;;;;;5019477;28;20217;-76
2022/05/08 06:01:05;;;;;;;0.60;0.60;;;11.00;69.50;;;;;;5015348;28;20204;-76
2022/05/08 06:03:32;;;;;;;0.70;0.70;;;11.00;69.30;;;;;;5015996;28;20865;-76
2022/05/08 06:05:58;;;;;;;2.07;0.77;;;11.10;69.20;;;;;;5021571;28;20185;-76
2022/05/08 06:08:24;;;;;;;0.73;0.73;;;;;;;;;;5012844;28;20978;-76
2022/05/08 06:10:50;;;;;;;0.60;0.60;;;11.20;68.90;;;;;;5017161;28;20188;-75
2022/05/08 06:13:16;;;;;;;0.70;0.70;;;11.20;68.70;;;;;;5012278;28;20177;-75
2022/05/08 06:15:42;;;;;;;0.87;0.87;;;11.30;68.70;;;;;;5007858;28;20199;-73
2022/05/08 06:18:08;;;;;;;0.67;0.63;;;11.30;68.70;;;;;;5015453;28;20221;-74
2022/05/08 06:20:34;;;;;;;0.60;0.60;;;;;;;;;;5012014;28;20568;-74
2022/05/08 06:23:03;;;;;;;0.60;0.60;;;;;;;;;;5011535;28;20176;-74
2022/05/08 06:25:29;;;;;;;1.13;0.70;;;11.50;67.90;;;;;;5011118;28;20195;-74
2022/05/08 06:27:54;;;;;;;1.98;1.20;;;11.50;67.70;;;;;;5017975;28;20664;-74
2022/05/08 06:30:20;;;;;;;1.53;0.90;;;11.60;67.80;;;;;;5012456;28;20663;-74
2022/05/08 06:32:46;;;;;;;0.70;0.70;;;;;;;;;;5009205;28;20262;-75
2022/05/08 06:35:12;;;;;;;0.90;0.90;;;11.70;67.90;;;;;;5006136;28;20185;-73
2022/05/08 06:37:38;;;;;;;1.30;0.70;;;;;;;;;;5013560;28;20278;-75
2022/05/08 06:40:07;;;;;;;0.75;0.75;;;11.80;67.80;;;;;;5010582;28;20187;-70
2022/05/08 06:42:32;;;;;;;1.90;0.85;;;11.90;67.60;;;;;;5013006;28;20184;-74
2022/05/08 06:44:59;;;;;;;1.10;0.73;;;11.90;67.20;;;;;;5006435;28;20702;-74
2022/05/08 06:47:24;;;;;;;1.23;1.13;;;12.00;67.10;;;;;;5009877;28;20287;-73
2022/05/08 06:49:50;;;;;;;1.52;0.93;;;;;;;;;;5011032;28;20296;-74
2022/05/08 06:52:16;;;;;;;4.22;0.77;;;12.10;66.40;;;;;;5012651;28;20189;-73
2022/05/08 06:54:42;;;;;;;0.98;0.98;;;;;;;;;;5008741;28;20666;-74
2022/05/08 06:57:08;;;;;;;0.70;0.70;;;12.20;66.30;;;;;;5013834;28;20230;-72
2022/05/08 07:02:18;;;;;;;0.90;0.90;;;12.30;67.00;;;;;;5007388;28;20215;-75
2022/05/08 07:04:44;;;;;;;1.13;1.08;;;12.40;67.20;;;;;;5009171;28;20188;-75
2022/05/08 07:07:10;;;;;;;0.93;0.93;;;;;;;;;;5009380;28;20177;-75
2022/05/08 07:09:36;;;;;;;0.80;0.77;;;12.50;66.70;;;;;;5011274;28;20652;-79
2022/05/08 07:12:02;;;;;;;0.63;0.63;;;12.60;66.70;;;;;;5010544;28;20184;-74
2022/05/08 07:14:28;;;;;;;0.65;0.50;;;12.70;66.30;;;;;;5012391;28;20208;-75
2022/05/08 07:16:53;;;;;;;0.98;0.98;;;12.80;65.90;;;;;;5013025;28;20200;-75
2022/05/08 07:19:19;;;;;;;1.02;1.02;;;;;;;;;;5008977;28;20720;-75
2022/05/08 07:21:45;;;;;;;0.90;0.90;;;12.90;65.90;;;;;;5007604;28;20184;-73
2022/05/08 07:24:11;;;;;;;2.35;0.93;;;12.90;66.20;;;;;;5009769;28;20192;-74
2022/05/08 07:26:37;;;;;;;1.30;1.17;;;;;;;;;;5014249;28;20180;-74
2022/05/08 07:29:04;;;;;;;0.80;0.80;;;13.10;66.20;;;;;;5015896;28;20181;-75
2022/05/08 07:31:31;;;;;;;2.38;1.15;;;13.20;65.90;;;;;;5012064;28;20189;-75
2022/05/08 07:36:43;;;;;;;1.23;1.23;;;13.40;65.30;;;;;;5014492;28;20234;-73
2022/05/08 07:39:08;;;;;;;0.95;0.82;;;13.40;65.30;;;;;;5010671;28;20240;-73
2022/05/08 07:41:34;;;;;;;0.93;0.90;;;;;;;;;;5008742;28;20185;-76
2022/05/08 07:44:00;;;;;;;3.25;1.13;;;13.60;65.20;;;;;;5015842;28;20181;-73
2022/05/08 07:46:26;;;;;;;1.73;1.25;;;13.60;65.30;;;;;;5011612;28;20187;-74
2022/05/08 07:48:52;;;;;;;3.03;1.27;;;13.80;65.30;;;;;;5011727;28;20197;-74
2022/05/08 07:51:18;;;;;;;2.05;1.10;;;13.90;65.90;;;;;;5009679;28;20185;-75
2022/05/08 07:53:44;;;;;;;1.08;1.08;;;;;;;;;;5010218;28;20184;-74
2022/05/08 07:56:10;;;;;;;1.15;0.95;;;14.10;64.80;;;;;;5010835;28;20185;-75
2022/05/08 07:58:35;;;;;;;0.90;0.90;;;14.20;63.80;;;;;;5019416;28;20269;-75
2022/05/08 08:01:02;;;;;;;1.13;1.00;;;14.30;64.20;;;;;;5015967;28;20261;-75
2022/05/08 08:03:30;;;;;;;1.00;0.75;;;14.40;63.80;;;;;;5011550;28;20870;-75
2022/05/08 08:05:57;;;;;;;1.15;1.15;;;14.40;63.40;;;;;;5007637;28;20195;-76
2022/05/08 08:08:25;;;;;;;1.00;1.00;;;14.40;63.60;;;;;;5017240;28;20242;-76
2022/05/08 08:10:56;;;;;;;2.17;0.70;;;14.50;64.40;;;;;;5002814;28;20188;-76
2022/05/08 08:13:28;;;;;;;1.73;1.25;;;14.70;64.40;;;;;;5010956;28;20181;-74
2022/05/08 08:15:55;;;;;;;2.20;1.90;;;14.80;64.30;;;;;;5014013;28;20268;-74
2022/05/08 08:18:21;;;;;;;1.17;1.00;;;14.90;63.90;;;;;;5012175;28;20201;-74
2022/05/08 08:20:46;;;;;;;2.47;1.13;;;15.10;64.20;;;;;;5014183;28;20172;-74
2022/05/08 08:23:12;;;;;;;2.55;1.20;;;15.20;64.30;;;;;;5015964;28;20177;-76
2022/05/08 08:25:39;;;;;;;1.30;1.30;;;15.40;64.40;;;;;;5005312;28;20239;-74
2022/05/08 08:28:05;;;;;;;1.30;1.30;;;15.50;64.00;;;;;;5039108;28;20192;-74
2022/05/08 08:30:31;;;;;;;1.10;1.10;;;15.60;63.80;;;;;;5014844;28;20187;-75
2022/05/08 08:32:57;;;;;;;1.73;1.60;;;15.80;64.20;;;;;;5012892;28;20719;-75
2022/05/08 08:35:23;;;;;;;1.10;1.00;;;16.00;62.90;;;;;;5009137;28;20263;-75
2022/05/08 08:37:49;;;;;;;1.33;1.30;;;;;;;;;;5008233;28;20188;-76
2022/05/08 08:40:14;;;;;;;2.47;0.88;;;16.20;63.30;;;;;;5011927;28;20751;-75
2022/05/08 08:42:42;;;;;;;1.00;1.00;;;16.40;62.20;;;;;;5008857;28;20192;-75
2022/05/08 08:48:08;;;;;;;0.80;0.80;;;16.80;60.30;;;;;;5013527;28;20258;-75
2022/05/08 08:50:35;;;;;;;2.13;1.15;;;16.90;61.00;;;;;;5009281;28;20261;-75
2022/05/08 08:53:05;;;;;;;2.95;1.17;;;17.00;60.20;;;;;;4998466;28;20234;-75
2022/05/08 08:55:32;;;;;;;0.90;0.90;;;17.10;61.30;;;;;;4998095;28;20184;-75
2022/05/08 08:57:59;;;;;;;1.13;0.95;;;17.30;61.10;;;;;;5008966;28;20726;-75
2022/05/08 09:00:24;;;;;;;1.00;1.00;;;17.50;59.50;;;;;;5012208;28;20595;-75
2022/05/08 09:02:53;;;;;;;1.73;0.95;;;17.50;57.70;;;;;;5008115;28;20177;-76
2022/05/08 09:05:19;;;;;;;3.22;1.00;;;17.70;59.50;;;;;;5008228;28;20207;-75
2022/05/08 09:07:46;;;;;;;2.95;1.15;;;17.80;58.70;;;;;;5009403;28;20185;-75
2022/05/08 09:10:22;;;;;;;1.35;1.20;;;17.90;58.50;;;;;;5011308;28;20612;-75
2022/05/08 09:12:56;;;;;;;1.00;1.00;;;18.10;57.30;;;;;;5011026;28;20212;-75
2022/05/08 09:15:34;;;;;;;0.98;0.98;;;18.20;58.10;;;;;;5007970;28;20188;-75
2022/05/08 09:18:01;;;;;;;0.98;0.98;;;18.30;58.80;;;;;;5019046;28;20291;-75
2022/05/08 09:20:44;;;;;;;0.98;0.93;;;18.50;58.70;;;;;;5047411;28;20189;-74
2022/05/08 09:23:18;;;;;;;1.75;1.15;;;18.60;59.00;;;;;;5007715;28;20181;-74
2022/05/08 09:26:00;;;;;;;1.42;1.42;;;18.80;58.50;;;;;;5001703;28;20504;-73
2022/05/08 09:28:31;;;;;;;1.15;1.15;;;19.00;58.60;;;;;;5014709;28;20235;-75
2022/05/08 09:30:59;;;;;;;1.45;1.35;;;19.20;58.20;;;;;;5013520;28;20188;-74
2022/05/08 09:33:42;;;;;;;1.13;1.08;;;19.30;57.60;;;;;;5014664;28;20816;-74
2022/05/08 09:36:10;;;;;;;2.78;1.02;;;19.60;57.50;;;;;;5009043;28;20215;-74
2022/05/08 09:38:54;;;;;;;1.02;0.98;;;19.90;53.60;;;;;;5012827;28;20222;-74
2022/05/08 09:41:38;;;;;;;0.90;0.90;;;20.20;54.30;;;;;;5010957;28;20543;-74
2022/05/08 09:44:11;;;;;;;1.08;1.08;;;20.40;54.30;;;;;;5014068;28;20181;-74
2022/05/08 09:46:48;;;;;;;2.17;1.08;;;20.80;54.40;;;;;;5008669;28;20681;-74
2022/05/08 09:49:23;;;;;;;0.90;0.90;;;21.20;54.00;;;;;;5024646;28;20200;-74
2022/05/08 09:51:49;;;;;;;1.65;0.70;;;21.70;46.60;;;;;;5011247;28;20267;-75
2022/05/08 09:54:17;;;;;;;0.60;0.60;;;21.90;46.80;;;;;;5013092;28;20185;-75
2022/05/08 09:56:44;;;;;;;0.60;0.60;;;22.40;45.50;;;;;;5012627;28;20188;-75
2022/05/08 09:59:12;;;;;;;2.42;0.63;;;22.90;45.10;;;;;;5010734;28;20319;-74
2022/05/08 10:01:39;;;;;;;0.77;0.70;;;23.60;45.90;;;;;;5009832;28;20180;-75
2022/05/08 10:04:05;;;;;;;0.80;0.80;;;24.20;44.80;;;;;;5012562;28;20177;-75
2022/05/08 10:06:33;;;;;;;0.82;0.82;;;24.80;45.50;;;;;;5011083;28;20472;-75
2022/05/08 10:14:33;;;;;;;0.75;0.75;;;26.10;43.40;;;;;;5015947;28;20621;-74
2022/05/08 10:17:06;;;;;;;0.70;0.70;;;26.50;43.50;;;;;;5011721;28;20581;-73
2022/05/08 10:19:32;;;;;;;1.75;0.80;;;26.80;44.20;;;;;;5012246;28;20220;-73
2022/05/08 10:22:05;;;;;;;1.13;1.10;;;;;;;;;;5011124;28;20203;-75
2022/05/08 10:24:47;;;;;;;0.73;0.73;;;27.60;42.00;;;;;;5005215;28;20204;-71
2022/05/08 10:27:31;;;;;;;0.68;0.68;;;28.20;39.40;;;;;;5013489;28;20177;-72
2022/05/08 10:29:57;;;;;;;0.80;0.80;;;28.30;39.50;;;;;;5006201;28;20291;-74
2022/05/08 10:32:32;;;;;;;0.80;0.68;;;28.60;40.60;;;;;;5013511;28;20289;-74
2022/05/08 10:35:11;;;;;;;0.57;0.57;;;29.00;39.30;;;;;;5041043;28;20203;-74
2022/05/08 10:37:41;;;;;;;0.60;0.60;;;29.50;39.90;;;;;;5016108;28;20188;-74
2022/05/08 10:40:22;;;;;;;0.55;0.55;;;29.60;38.30;;;;;;5009122;28;20274;-76
2022/05/08 10:42:59;;;;;;;1.05;0.50;;;29.90;37.70;;;;;;5014273;28;20259;-74
2022/05/08 10:45:33;;;;;;;0.73;0.73;;;30.40;38.60;;;;;;5006490;28;20175;-75
2022/05/08 10:48:01;;;;;;;1.02;0.80;;;;;;;;;;5012388;28;20188;-73
2022/05/08 10:50:28;;;;;;;0.90;0.90;;;31.10;38.30;;;;;;5015147;28;20185;-74
2022/05/08 10:52:54;;;;;;;2.97;1.20;;;31.50;39.00;;;;;;5014314;28;20240;-74
2022/05/08 10:55:20;;;;;;;1.08;1.08;;;;;;;;;;5012862;28;20188;-74
2022/05/08 10:57:48;;;;;;;0.90;0.90;;;31.50;39.00;;;;;;5019700;28;20232;-74
2022/05/08 11:00:18;;;;;;;0.77;0.77;;;31.70;38.30;;;;;;5016223;28;20796;-75
2022/05/08 11:02:51;;;;;;;2.95;1.00;;;32.00;37.10;;;;;;5015847;28;20245;-75
2022/05/08 11:05:21;;;;;;;0.70;0.70;;;32.40;38.10;;;;;;5012646;28;20192;-75
2022/05/08 11:07:50;;;;;;;5.20;1.05;;;32.50;36.80;;;;;;5016270;28;20177;-74
2022/05/08 11:10:18;;;;;;;0.70;0.70;;;32.10;36.70;;;;;;5011049;28;20180;-75
2022/05/08 11:13:10;;;;;;;0.60;0.60;;;32.00;37.40;;;;;;5007761;28;20173;-75
2022/05/08 11:15:39;;;;;;;2.35;1.08;;;32.10;39.60;;;;;;5009690;28;20180;-75
2022/05/08 11:18:12;;;;;;;0.88;0.88;;;32.10;37.50;;;;;;5014156;28;20216;-75
2022/05/08 11:20:44;;;;;;;0.90;0.90;;;31.90;38.00;;;;;;5018510;28;20189;-75
2022/05/08 11:23:18;;;;;;;1.02;0.95;;;32.10;38.10;;;;;;5014284;28;20562;-75
2022/05/08 11:25:49;;;;;;;3.63;1.02;;;32.20;37.60;;;;;;5045331;28;20732;-75
2022/05/08 11:28:17;;;;;;;0.93;0.75;;;32.50;36.80;;;;;;5014217;28;20601;-75
2022/05/08 11:30:44;;;;;;;1.33;1.25;;;32.80;39.10;;;;;;5006566;28;20641;-75
2022/05/08 11:38:51;;;;;;;1.88;0.73;;;33.60;36.70;;;;;;5019776;28;20246;-75
2022/05/08 11:41:28;;;;;;;0.77;0.77;;;33.90;36.30;;;;;;5010075;28;20331;-74
2022/05/08 11:43:56;;;;;;;0.80;0.80;;;33.80;34.90;;;;;;5009882;28;20212;-74
2022/05/08 11:46:38;;;;;;;0.80;0.80;;;33.90;35.60;;;;;;5015628;28;20171;-74
2022/05/08 11:49:19;;;;;;;3.42;0.75;;;34.00;35.40;;;;;;5024071;28;20199;-75
2022/05/08 11:51:53;;;;;;;0.60;0.60;;;34.20;38.20;;;;;;5014896;28;20242;-75
2022/05/08 11:54:22;;;;;;;0.70;0.70;;;34.30;35.90;;;;;;5040907;28;20185;-75
2022/05/08 11:56:53;;;;;;;1.13;0.75;;;34.40;37.50;;;;;;5015392;28;20263;-75
2022/05/08 11:59:21;;;;;;;0.50;0.50;;;34.80;35.60;;;;;;5014872;28;20312;-74
2022/05/08 12:01:49;;;;;;;0.75;0.75;;;34.90;35.00;;;;;;5011513;28;20215;-75
2022/05/08 12:04:27;;;;;;;0.77;0.77;;;35.30;34.00;;;;;;5009561;28;20634;-74
2022/05/08 12:07:05;;;;;;;0.70;0.70;;;35.80;34.20;;;;;;5011429;28;20181;-75
2022/05/08 12:09:37;;;;;;;0.60;0.60;;;35.90;36.30;;;;;;5047049;28;20180;-75
2022/05/08 12:12:25;;;;;;;1.67;0.70;;;36.00;34.00;;;;;;5016525;28;20487;-74
2022/05/08 12:15:07;;;;;;;1.85;0.50;;;36.00;32.10;;;;;;5012276;28;20187;-75
2022/05/08 12:17:42;;;;;;;0.40;0.40;;;36.10;33.00;;;;;;5013353;28;20720;-75
2022/05/08 12:20:09;;;;;;;0.30;0.30;;;36.40;31.70;;;;;;5013896;28;20186;-75
2022/05/08 12:22:35;;;;;;;0.30;0.30;;;36.40;31.70;;;;;;5012946;28;20767;-75
2022/05/08 12:25:00;;;;;;;0.40;0.40;;;36.40;33.10;;;;;;5019474;28;20188;-74
2022/05/08 12:27:28;;;;;;;0.32;0.32;;;36.50;32.10;;;;;;5013565;28;20180;-75
2022/05/08 12:29:57;;;;;;;0.40;0.40;;;36.60;36.70;;;;;;5046367;28;20275;-77
2022/05/08 12:32:25;;;;;;;0.50;0.50;;;36.60;31.50;;;;;;5014826;28;20732;-75
2022/05/08 12:34:53;;;;;;;0.45;0.30;;;36.60;31.80;;;;;;5046222;28;20565;-75
2022/05/08 12:37:19;;;;;;;0.45;0.40;;;36.70;31.40;;;;;;5020805;28;20176;-75
2022/05/08 12:39:45;;;;;;;0.40;0.40;;;36.60;31.80;;;;;;5012454;28;20634;-75
2022/05/08 12:42:11;;;;;;;0.40;0.40;;;36.50;32.10;;;;;;5005681;28;20226;-73
2022/05/08 12:44:38;;;;;;;0.40;0.40;;;35.70;32.90;;;;;;5003234;28;20882;-75
2022/05/08 12:47:09;;;;;;;1.42;0.52;;;35.50;32.90;;;;;;5008120;28;20182;-73
2022/05/08 12:49:36;;;;;;;0.50;0.50;;;35.10;34.00;;;;;;5008910;28;20226;-74
2022/05/08 12:52:03;;;;;;;0.40;0.40;;;35.10;34.00;;;;;;5008275;28;20658;-73
2022/05/08 12:54:29;;;;;;;0.60;0.60;;;34.10;32.10;;;;;;5013622;28;20187;-76
2022/05/08 12:56:55;;;;;;;2.20;0.50;;;34.00;33.30;;;;;;5011750;28;20183;-73
2022/05/08 13:02:05;;;;;;;1.02;0.50;;;32.40;33.40;;;;;;5010727;28;20187;-73
2022/05/08 13:04:31;;;;;;;1.17;0.52;;;32.00;33.50;;;;;;5020181;28;20171;-73
2022/05/08 13:06:57;;;;;;;0.60;0.60;;;32.00;35.60;;;;;;5017757;28;20269;-73
2022/05/08 13:09:23;;;;;;;0.40;0.40;;;31.80;33.20;;;;;;5014006;28;20964;-73
2022/05/08 13:11:50;;;;;;;0.43;0.43;;;31.20;33.20;;;;;;5005800;28;20191;-73
2022/05/08 13:14:16;;;;;;;0.55;0.55;;;30.60;35.10;;;;;;5028850;28;20184;-73
2022/05/08 13:16:42;;;;;;;1.58;0.50;;;30.30;34.20;;;;;;5009152;28;20250;-73
2022/05/08 13:19:07;;;;;;;0.50;0.50;;;30.30;35.50;;;;;;5015251;28;21829;-73
2022/05/08 13:21:37;;;;;;;1.17;0.60;;;30.40;36.60;;;;;;5008506;28;20188;-73
2022/05/08 13:24:03;;;;;;;0.68;0.60;;;30.60;35.60;;;;;;5046651;28;20183;-74
2022/05/08 13:26:29;;;;;;;0.90;0.50;;;30.90;35.70;;;;;;5018002;28;20590;-74
2022/05/08 13:28:55;;;;;;;0.47;0.47;;;31.10;34.80;;;;;;5015340;28;20208;-73
2022/05/08 13:31:21;;;;;;;0.50;0.50;;;31.40;36.70;;;;;;5017217;28;20173;-73
2022/05/08 13:33:47;;;;;;;0.70;0.70;;;31.60;35.20;;;;;;5016708;28;20180;-73
2022/05/08 13:36:12;;;;;;;0.63;0.43;;;31.60;34.20;;;;;;5011625;28;20268;-74
2022/05/08 13:38:42;;;;;;;0.43;0.43;;;31.60;34.30;;;;;;5012941;28;20184;-72
2022/05/08 13:41:08;;;;;;;0.70;0.70;;;31.60;35.00;;;;;;5012101;28;20208;-73
2022/05/08 13:43:35;;;;;;;1.08;0.75;;;31.50;35.50;;;;;;5012397;28;20184;-73